AXB1214 VOBL-VOTR
Flight info
| Callsign | AXB1214 |
|---|---|
| Flight time | N/A |
| Altitude | 25000 |
| Route | AKTIM7B AKTIM V45 TTR |
| Aircraft | B738/M-SDE2E3FGHIRWXY/LB1 |
Departure
| Time | N/A |
|---|---|
| Airport | Kempegowda International Airport Bengaluru (VOBL) |
Arrival
| Time | 2026-05-05 18:07 |
|---|---|
| Airport | Tiruchirappalli International Airport (VOTR) |
| Time | Latitude | Longitude | Altitude | Speed | Heading |
|---|---|---|---|---|---|
| 2026-05-05 17:39 | 12.68466 | 77.74442 | 22896 ft | 449 kts | 145° |
| 2026-05-05 17:40 | 12.65821 | 77.76150 | 22996 ft | 452 kts | 146° |
| 2026-05-05 17:40 | 12.63280 | 77.77776 | 23024 ft | 452 kts | 146° |
| 2026-05-05 17:40 | 12.60576 | 77.79500 | 23022 ft | 452 kts | 146° |
| 2026-05-05 17:40 | 12.58067 | 77.81094 | 23021 ft | 455 kts | 146° |
| 2026-05-05 17:41 | 12.55431 | 77.82761 | 23021 ft | 457 kts | 146° |
| 2026-05-05 17:41 | 12.52721 | 77.84468 | 23021 ft | 460 kts | 146° |
| 2026-05-05 17:41 | 12.49982 | 77.86191 | 23019 ft | 462 kts | 146° |
| 2026-05-05 17:41 | 12.47249 | 77.87907 | 22841 ft | 457 kts | 146° |
| 2026-05-05 17:42 | 12.44544 | 77.89602 | 21415 ft | 464 kts | 146° |
| 2026-05-05 17:42 | 12.41827 | 77.91304 | 20460 ft | 457 kts | 147° |
| 2026-05-05 17:42 | 12.39168 | 77.92966 | 20455 ft | 440 kts | 147° |
| 2026-05-05 17:42 | 12.36553 | 77.94602 | 20586 ft | 446 kts | 147° |
| 2026-05-05 17:43 | 12.33916 | 77.96254 | 20779 ft | 456 kts | 147° |
| 2026-05-05 17:43 | 12.31376 | 77.97842 | 20998 ft | 458 kts | 147° |
| 2026-05-05 17:43 | 12.28653 | 77.99542 | 21019 ft | 460 kts | 147° |
| 2026-05-05 17:43 | 12.25913 | 78.01253 | 21019 ft | 463 kts | 147° |
| 2026-05-05 17:44 | 12.23163 | 78.02970 | 21018 ft | 465 kts | 147° |
| 2026-05-05 17:44 | 12.20404 | 78.04692 | 21020 ft | 466 kts | 147° |
| 2026-05-05 17:44 | 12.17639 | 78.06416 | 21021 ft | 466 kts | 147° |
| 2026-05-05 17:44 | 12.14877 | 78.08138 | 21017 ft | 467 kts | 147° |
| 2026-05-05 17:45 | 12.12093 | 78.09874 | 21020 ft | 468 kts | 147° |
| 2026-05-05 17:45 | 12.09321 | 78.11601 | 21020 ft | 466 kts | 147° |
| 2026-05-05 17:45 | 12.06598 | 78.13297 | 20843 ft | 455 kts | 147° |
| 2026-05-05 17:45 | 12.03964 | 78.14935 | 19814 ft | 453 kts | 147° |
| 2026-05-05 17:46 | 12.01294 | 78.16600 | 18801 ft | 448 kts | 147° |
| 2026-05-05 17:46 | 11.98681 | 78.18226 | 18309 ft | 431 kts | 147° |
| 2026-05-05 17:46 | 11.96184 | 78.19778 | 17873 ft | 416 kts | 147° |
| 2026-05-05 17:46 | 11.93741 | 78.21299 | 17173 ft | 409 kts | 147° |
| 2026-05-05 17:47 | 11.91345 | 78.22790 | 16447 ft | 403 kts | 147° |
| 2026-05-05 17:47 | 11.88961 | 78.24274 | 15657 ft | 400 kts | 147° |
| 2026-05-05 17:47 | 11.86505 | 78.25805 | 15347 ft | 427 kts | 147° |
| 2026-05-05 17:47 | 11.83912 | 78.27420 | 15239 ft | 449 kts | 147° |
| 2026-05-05 17:48 | 11.81193 | 78.29111 | 15145 ft | 467 kts | 147° |
| 2026-05-05 17:48 | 11.78387 | 78.30855 | 15057 ft | 483 kts | 147° |
| 2026-05-05 17:48 | 11.75470 | 78.32667 | 14968 ft | 496 kts | 147° |
| 2026-05-05 17:48 | 11.72499 | 78.34512 | 14877 ft | 500 kts | 147° |
| 2026-05-05 17:49 | 11.69595 | 78.36313 | 14892 ft | 476 kts | 147° |
| 2026-05-05 17:49 | 11.66849 | 78.38014 | 14897 ft | 447 kts | 147° |
| 2026-05-05 17:49 | 11.64273 | 78.39612 | 14899 ft | 427 kts | 147° |
| 2026-05-05 17:49 | 11.61788 | 78.41154 | 14309 ft | 416 kts | 147° |
| 2026-05-05 17:50 | 11.59334 | 78.42679 | 13078 ft | 420 kts | 147° |
| 2026-05-05 17:50 | 11.56874 | 78.44206 | 12137 ft | 415 kts | 147° |
| 2026-05-05 17:50 | 11.54439 | 78.45716 | 11210 ft | 409 kts | 147° |
| 2026-05-05 17:50 | 11.52053 | 78.47195 | 10907 ft | 397 kts | 147° |
| 2026-05-05 17:51 | 11.49678 | 78.48669 | 10881 ft | 406 kts | 147° |
| 2026-05-05 17:51 | 11.47288 | 78.50151 | 10706 ft | 395 kts | 148° |
| 2026-05-05 17:51 | 11.44957 | 78.51595 | 9573 ft | 399 kts | 148° |
| 2026-05-05 17:51 | 11.42620 | 78.53044 | 8706 ft | 393 kts | 148° |
| 2026-05-05 17:52 | 11.40303 | 78.54479 | 7691 ft | 392 kts | 148° |
| 2026-05-05 17:52 | 11.37852 | 78.55999 | 7328 ft | 430 kts | 148° |
| 2026-05-05 17:52 | 11.35216 | 78.57632 | 7195 ft | 457 kts | 148° |
| 2026-05-05 17:52 | 11.32446 | 78.59347 | 7103 ft | 477 kts | 148° |
| 2026-05-05 17:53 | 11.29564 | 78.61131 | 7014 ft | 494 kts | 148° |
| 2026-05-05 17:53 | 11.26771 | 78.62858 | 6129 ft | 451 kts | 148° |
| 2026-05-05 17:53 | 11.24212 | 78.64440 | 5092 ft | 409 kts | 148° |
| 2026-05-05 17:53 | 11.21927 | 78.65853 | 4684 ft | 368 kts | 148° |
| 2026-05-05 17:54 | 11.19804 | 78.67166 | 3805 ft | 350 kts | 148° |
| 2026-05-05 17:54 | 11.17780 | 78.68417 | 3611 ft | 330 kts | 148° |
| 2026-05-05 17:54 | 11.15884 | 78.69589 | 3471 ft | 311 kts | 148° |
| 2026-05-05 17:54 | 11.14093 | 78.70696 | 3391 ft | 292 kts | 148° |
| 2026-05-05 17:55 | 11.12382 | 78.71754 | 3383 ft | 283 kts | 148° |
| 2026-05-05 17:55 | 11.10753 | 78.72760 | 3387 ft | 269 kts | 148° |
| 2026-05-05 17:55 | 11.09155 | 78.73748 | 3390 ft | 275 kts | 148° |
| 2026-05-05 17:55 | 11.07539 | 78.74746 | 3383 ft | 269 kts | 148° |
| 2026-05-05 17:56 | 11.05961 | 78.75721 | 3385 ft | 270 kts | 148° |
| 2026-05-05 17:56 | 11.04346 | 78.76719 | 3375 ft | 269 kts | 148° |
| 2026-05-05 17:56 | 11.02793 | 78.77678 | 3223 ft | 254 kts | 148° |
| 2026-05-05 17:56 | 11.01346 | 78.78571 | 3103 ft | 233 kts | 148° |
| 2026-05-05 17:57 | 11.00013 | 78.79394 | 2769 ft | 218 kts | 148° |
| 2026-05-05 17:57 | 10.98742 | 78.80179 | 2215 ft | 214 kts | 148° |
| 2026-05-05 17:57 | 10.97537 | 78.80923 | 2183 ft | 194 kts | 148° |
| 2026-05-05 17:57 | 10.96387 | 78.81633 | 2179 ft | 192 kts | 148° |
| 2026-05-05 17:58 | 10.95245 | 78.82338 | 2189 ft | 196 kts | 149° |
| 2026-05-05 17:58 | 10.94055 | 78.83072 | 2200 ft | 209 kts | 149° |
| 2026-05-05 17:58 | 10.92806 | 78.83843 | 2176 ft | 206 kts | 149° |
| 2026-05-05 17:58 | 10.91613 | 78.84579 | 2176 ft | 196 kts | 149° |
| 2026-05-05 17:59 | 10.90570 | 78.85222 | 2181 ft | 171 kts | 149° |
| 2026-05-05 17:59 | 10.89575 | 78.85837 | 2206 ft | 190 kts | 149° |
| 2026-05-05 17:59 | 10.88448 | 78.86531 | 2197 ft | 196 kts | 149° |
| 2026-05-05 17:59 | 10.87230 | 78.87283 | 2185 ft | 215 kts | 149° |
| 2026-05-05 18:00 | 10.85973 | 78.88058 | 2171 ft | 199 kts | 149° |
| 2026-05-05 18:00 | 10.84740 | 78.88818 | 2201 ft | 221 kts | 149° |
| 2026-05-05 18:00 | 10.83378 | 78.89658 | 2174 ft | 223 kts | 149° |
| 2026-05-05 18:00 | 10.82148 | 78.90417 | 2168 ft | 190 kts | 149° |
| 2026-05-05 18:01 | 10.81115 | 78.91053 | 2174 ft | 159 kts | 149° |
| 2026-05-05 18:01 | 10.80210 | 78.91608 | 2186 ft | 150 kts | 152° |
| 2026-05-05 18:01 | 10.79216 | 78.91784 | 2169 ft | 148 kts | 197° |
| 2026-05-05 18:01 | 10.78415 | 78.91165 | 2190 ft | 150 kts | 242° |
| 2026-05-05 18:02 | 10.78202 | 78.90147 | 2229 ft | 148 kts | 264° |
| 2026-05-05 18:02 | 10.78045 | 78.89095 | 2168 ft | 149 kts | 261° |
| 2026-05-05 18:02 | 10.77910 | 78.88056 | 2191 ft | 150 kts | 264° |
| 2026-05-05 18:02 | 10.77816 | 78.87008 | 2193 ft | 148 kts | 265° |
| 2026-05-05 18:03 | 10.77731 | 78.85957 | 2171 ft | 148 kts | 265° |
| 2026-05-05 18:03 | 10.77650 | 78.84936 | 2149 ft | 142 kts | 265° |
| 2026-05-05 18:03 | 10.77569 | 78.83890 | 2243 ft | 151 kts | 265° |
| 2026-05-05 18:03 | 10.77486 | 78.82830 | 2162 ft | 147 kts | 265° |
| 2026-05-05 18:04 | 10.77404 | 78.81780 | 2074 ft | 152 kts | 265° |
| 2026-05-05 18:04 | 10.77321 | 78.80726 | 1811 ft | 147 kts | 265° |
| 2026-05-05 18:04 | 10.77241 | 78.79690 | 1630 ft | 147 kts | 265° |
| 2026-05-05 18:04 | 10.77177 | 78.78870 | 1471 ft | 143 kts | 265° |
| 2026-05-05 18:05 | 10.77098 | 78.77866 | 1275 ft | 142 kts | 265° |
| 2026-05-05 18:05 | 10.77020 | 78.76862 | 1084 ft | 142 kts | 265° |
| 2026-05-05 18:05 | 10.76942 | 78.75860 | 892 ft | 142 kts | 265° |
| 2026-05-05 18:05 | 10.76864 | 78.74862 | 702 ft | 142 kts | 265° |
| 2026-05-05 18:06 | 10.76783 | 78.73867 | 540 ft | 141 kts | 265° |
| 2026-05-05 18:06 | 10.76723 | 78.73207 | 457 ft | 141 kts | 264° |
| 2026-05-05 18:06 | 10.76599 | 78.71892 | 289 ft | 130 kts | 265° |
| 2026-05-05 18:06 | 10.76561 | 78.71249 | 295 ft | 50 kts | 267° |
| 2026-05-05 18:07 | 10.76554 | 78.71143 | 295 ft | 3 kts | 264° |
| 2026-05-05 18:07 | 10.76545 | 78.71069 | 296 ft | 16 kts | 264° |
| 2026-05-05 18:07 | 10.76532 | 78.70953 | 297 ft | 14 kts | 251° |
| 2026-05-05 18:07 | 10.76467 | 78.70949 | 298 ft | 9 kts | 151° |
| 2026-05-05 18:08 | 10.76413 | 78.70982 | 298 ft | 8 kts | 149° |
| 2026-05-05 18:08 | 10.76347 | 78.71022 | 298 ft | 14 kts | 150° |
| 2026-05-05 18:08 | 10.76249 | 78.71081 | 298 ft | 14 kts | 159° |
| 2026-05-05 18:08 | 10.76190 | 78.71042 | 300 ft | 8 kts | 238° |
| 2026-05-05 18:09 | 10.76154 | 78.70958 | 301 ft | 18 kts | 246° |
| 2026-05-05 18:09 | 10.76105 | 78.70907 | 301 ft | 0 kts | 210° |